sensor_id;sensor_type;location;lat;lon;timestamp;pressure;altitude;pressure_sealevel;temperature;humidity
55277;BME280;41136;51.478;-2.610;2023-12-28T00:00:46;99258.23;;;9.77;100.00
55277;BME280;41136;51.478;-2.610;2023-12-28T00:03:12;99262.34;;;9.54;100.00
55277;BME280;41136;51.478;-2.610;2023-12-28T00:05:37;99261.29;;;9.07;100.00
55277;BME280;41136;51.478;-2.610;2023-12-28T00:08:03;99268.70;;;9.58;100.00
55277;BME280;41136;51.478;-2.610;2023-12-28T00:10:28;99285.73;;;9.36;100.00
55277;BME280;41136;51.478;-2.610;2023-12-28T00:12:54;99287.50;;;9.89;100.00
55277;BME280;41136;51.478;-2.610;2023-12-28T00:15:19;99287.23;;;9.63;100.00
55277;BME280;41136;51.478;-2.610;2023-12-28T00:17:44;99294.87;;;9.39;100.00
55277;BME280;41136;51.478;-2.610;2023-12-28T00:20:11;99301.38;;;9.49;100.00
55277;BME280;41136;51.478;-2.610;2023-12-28T00:22:35;99303.78;;;9.03;100.00
55277;BME280;41136;51.478;-2.610;2023-12-28T00:25:00;99304.15;;;9.53;100.00
55277;BME280;41136;51.478;-2.610;2023-12-28T00:27:25;99299.98;;;9.45;100.00
55277;BME280;41136;51.478;-2.610;2023-12-28T00:29:51;99306.96;;;9.01;100.00
55277;BME280;41136;51.478;-2.610;2023-12-28T00:32:16;99299.09;;;9.65;100.00
55277;BME280;41136;51.478;-2.610;2023-12-28T00:34:41;99297.99;;;9.77;100.00
55277;BME280;41136;51.478;-2.610;2023-12-28T00:37:07;99302.17;;;9.31;100.00
55277;BME280;41136;51.478;-2.610;2023-12-28T00:39:32;99305.94;;;9.16;100.00
55277;BME280;41136;51.478;-2.610;2023-12-28T00:41:57;99315.21;;;9.64;100.00
55277;BME280;41136;51.478;-2.610;2023-12-28T00:44:23;99308.57;;;9.73;100.00
55277;BME280;41136;51.478;-2.610;2023-12-28T00:46:49;99320.91;;;9.76;100.00
55277;BME280;41136;51.478;-2.610;2023-12-28T00:49:15;99300.25;;;9.51;100.00
55277;BME280;41136;51.478;-2.610;2023-12-28T00:51:40;99307.15;;;9.40;100.00
55277;BME280;41136;51.478;-2.610;2023-12-28T00:54:05;99313.42;;;9.02;100.00
55277;BME280;41136;51.478;-2.610;2023-12-28T00:56:31;99305.45;;;9.30;100.00
55277;BME280;41136;51.478;-2.610;2023-12-28T00:58:56;99310.98;;;8.94;100.00
55277;BME280;41136;51.478;-2.610;2023-12-28T01:01:21;99305.96;;;9.44;100.00
55277;BME280;41136;51.478;-2.610;2023-12-28T01:03:46;99302.61;;;9.09;100.00
55277;BME280;41136;51.478;-2.610;2023-12-28T01:06:12;99310.29;;;9.14;100.00
55277;BME280;41136;51.478;-2.610;2023-12-28T01:08:37;99311.44;;;9.24;100.00
55277;BME280;41136;51.478;-2.610;2023-12-28T01:11:03;99312.84;;;9.63;100.00
55277;BME280;41136;51.478;-2.610;2023-12-28T01:13:28;99326.74;;;9.83;100.00
55277;BME280;41136;51.478;-2.610;2023-12-28T01:15:53;99341.77;;;9.16;100.00
55277;BME280;41136;51.478;-2.610;2023-12-28T01:18:19;99334.55;;;9.03;100.00
55277;BME280;41136;51.478;-2.610;2023-12-28T01:20:44;99367.32;;;8.20;100.00
55277;BME280;41136;51.478;-2.610;2023-12-28T01:23:10;99338.26;;;8.64;100.00
55277;BME280;41136;51.478;-2.610;2023-12-28T01:25:35;99337.84;;;8.79;100.00
55277;BME280;41136;51.478;-2.610;2023-12-28T01:28:00;99337.07;;;8.96;100.00
55277;BME280;41136;51.478;-2.610;2023-12-28T01:30:26;99325.25;;;8.35;100.00
55277;BME280;41136;51.478;-2.610;2023-12-28T01:32:51;99347.75;;;8.36;100.00
55277;BME280;41136;51.478;-2.610;2023-12-28T01:35:17;99339.47;;;8.19;100.00
55277;BME280;41136;51.478;-2.610;2023-12-28T01:37:43;99333.09;;;9.14;100.00
55277;BME280;41136;51.478;-2.610;2023-12-28T01:40:09;99341.23;;;9.23;100.00
55277;BME280;41136;51.478;-2.610;2023-12-28T01:42:34;99345.80;;;9.44;100.00
55277;BME280;41136;51.478;-2.610;2023-12-28T01:44:59;99350.10;;;9.03;100.00
55277;BME280;41136;51.478;-2.610;2023-12-28T01:47:25;99361.52;;;9.06;100.00
55277;BME280;41136;51.478;-2.610;2023-12-28T01:49:50;99361.70;;;9.07;100.00
55277;BME280;41136;51.478;-2.610;2023-12-28T01:52:15;99354.02;;;8.94;100.00
55277;BME280;41136;51.478;-2.610;2023-12-28T01:54:40;99354.08;;;9.30;100.00
55277;BME280;41136;51.478;-2.610;2023-12-28T01:57:06;99347.82;;;9.18;100.00
55277;BME280;41136;51.478;-2.610;2023-12-28T01:59:31;99337.78;;;8.75;100.00
55277;BME280;41136;51.478;-2.610;2023-12-28T02:01:56;99346.07;;;9.13;100.00
55277;BME280;41136;51.478;-2.610;2023-12-28T02:04:22;99346.24;;;9.22;100.00
55277;BME280;41136;51.478;-2.610;2023-12-28T02:06:47;99356.77;;;9.11;100.00
55277;BME280;41136;51.478;-2.610;2023-12-28T02:09:12;99362.64;;;9.09;100.00
55277;BME280;41136;51.478;-2.610;2023-12-28T02:11:37;99373.68;;;8.64;100.00
55277;BME280;41136;51.478;-2.610;2023-12-28T02:14:02;99388.86;;;9.09;100.00
55277;BME280;41136;51.478;-2.610;2023-12-28T02:16:32;99381.71;;;9.18;100.00
55277;BME280;41136;51.478;-2.610;2023-12-28T02:18:54;99396.88;;;8.56;100.00
55277;BME280;41136;51.478;-2.610;2023-12-28T02:21:19;99408.41;;;8.34;100.00
55277;BME280;41136;51.478;-2.610;2023-12-28T02:40:15;99401.37;;;8.11;100.00
55277;BME280;41136;51.478;-2.610;2023-12-28T02:42:39;99407.56;;;8.28;100.00
55277;BME280;41136;51.478;-2.610;2023-12-28T02:45:06;99395.17;;;8.24;100.00
55277;BME280;41136;51.478;-2.610;2023-12-28T02:47:30;99399.34;;;8.51;100.00
55277;BME280;41136;51.478;-2.610;2023-12-28T02:49:55;99402.81;;;9.38;100.00
55277;BME280;41136;51.478;-2.610;2023-12-28T02:52:20;99410.26;;;8.70;100.00
55277;BME280;41136;51.478;-2.610;2023-12-28T02:54:46;99415.53;;;8.78;100.00
55277;BME280;41136;51.478;-2.610;2023-12-28T02:57:11;99410.18;;;8.92;100.00
55277;BME280;41136;51.478;-2.610;2023-12-28T02:59:37;99413.33;;;8.80;100.00
55277;BME280;41136;51.478;-2.610;2023-12-28T03:02:03;99413.15;;;9.16;100.00
55277;BME280;41136;51.478;-2.610;2023-12-28T03:04:29;99416.69;;;9.95;100.00
55277;BME280;41136;51.478;-2.610;2023-12-28T03:06:54;99418.98;;;9.03;100.00
55277;BME280;41136;51.478;-2.610;2023-12-28T03:09:19;99404.34;;;9.05;100.00
55277;BME280;41136;51.478;-2.610;2023-12-28T03:11:45;99394.33;;;9.26;100.00
55277;BME280;41136;51.478;-2.610;2023-12-28T03:14:11;99391.96;;;8.30;100.00
55277;BME280;41136;51.478;-2.610;2023-12-28T03:16:36;99404.61;;;8.76;100.00
55277;BME280;41136;51.478;-2.610;2023-12-28T03:19:01;99391.43;;;8.67;100.00
55277;BME280;41136;51.478;-2.610;2023-12-28T03:21:27;99401.67;;;8.86;100.00
55277;BME280;41136;51.478;-2.610;2023-12-28T03:23:52;99399.85;;;9.27;100.00
55277;BME280;41136;51.478;-2.610;2023-12-28T03:26:18;99402.46;;;9.21;100.00
55277;BME280;41136;51.478;-2.610;2023-12-28T03:28:44;99399.68;;;8.68;100.00
55277;BME280;41136;51.478;-2.610;2023-12-28T03:31:09;99410.82;;;8.92;100.00
55277;BME280;41136;51.478;-2.610;2023-12-28T03:33:35;99399.72;;;8.67;100.00
55277;BME280;41136;51.478;-2.610;2023-12-28T03:36:00;99403.12;;;8.95;100.00
55277;BME280;41136;51.478;-2.610;2023-12-28T03:38:27;99404.00;;;9.33;100.00
55277;BME280;41136;51.478;-2.610;2023-12-28T03:40:51;99414.91;;;9.24;100.00
55277;BME280;41136;51.478;-2.610;2023-12-28T03:43:17;99416.81;;;9.79;100.00
55277;BME280;41136;51.478;-2.610;2023-12-28T03:45:43;99418.32;;;9.27;100.00
55277;BME280;41136;51.478;-2.610;2023-12-28T03:48:08;99423.97;;;8.67;100.00
55277;BME280;41136;51.478;-2.610;2023-12-28T03:50:34;99426.68;;;9.57;100.00
55277;BME280;41136;51.478;-2.610;2023-12-28T03:52:59;99420.50;;;9.75;100.00
55277;BME280;41136;51.478;-2.610;2023-12-28T03:55:25;99424.66;;;9.53;100.00
55277;BME280;41136;51.478;-2.610;2023-12-28T03:57:50;99433.12;;;8.90;100.00
55277;BME280;41136;51.478;-2.610;2023-12-28T04:00:16;99422.60;;;9.11;100.00
55277;BME280;41136;51.478;-2.610;2023-12-28T04:02:42;99430.55;;;9.22;100.00
55277;BME280;41136;51.478;-2.610;2023-12-28T04:05:08;99439.41;;;9.24;100.00
55277;BME280;41136;51.478;-2.610;2023-12-28T04:07:33;99431.05;;;8.71;100.00
55277;BME280;41136;51.478;-2.610;2023-12-28T04:09:58;99434.76;;;8.88;100.00
55277;BME280;41136;51.478;-2.610;2023-12-28T04:12:23;99440.41;;;9.86;100.00
55277;BME280;41136;51.478;-2.610;2023-12-28T04:14:49;99439.45;;;8.80;100.00
55277;BME280;41136;51.478;-2.610;2023-12-28T04:17:14;99432.75;;;9.28;100.00
55277;BME280;41136;51.478;-2.610;2023-12-28T04:19:39;99431.23;;;9.30;100.00
55277;BME280;41136;51.478;-2.610;2023-12-28T04:22:05;99437.02;;;9.01;100.00
55277;BME280;41136;51.478;-2.610;2023-12-28T04:24:30;99443.40;;;8.76;100.00
55277;BME280;41136;51.478;-2.610;2023-12-28T04:26:55;99442.81;;;8.72;100.00
55277;BME280;41136;51.478;-2.610;2023-12-28T04:29:21;99456.50;;;9.63;100.00
55277;BME280;41136;51.478;-2.610;2023-12-28T04:31:46;99456.85;;;10.09;100.00
55277;BME280;41136;51.478;-2.610;2023-12-28T04:34:11;99465.13;;;9.23;100.00
55277;BME280;41136;51.478;-2.610;2023-12-28T04:36:40;99468.10;;;9.09;100.00
55277;BME280;41136;51.478;-2.610;2023-12-28T04:39:02;99470.05;;;9.56;100.00
55277;BME280;41136;51.478;-2.610;2023-12-28T04:41:27;99465.39;;;9.14;100.00
55277;BME280;41136;51.478;-2.610;2023-12-28T04:50:02;99458.86;;;9.72;100.00
55277;BME280;41136;51.478;-2.610;2023-12-28T04:56:22;99454.33;;;10.45;100.00
55277;BME280;41136;51.478;-2.610;2023-12-28T04:58:48;99449.99;;;9.49;100.00
55277;BME280;41136;51.478;-2.610;2023-12-28T05:01:14;99451.09;;;9.92;100.00
55277;BME280;41136;51.478;-2.610;2023-12-28T05:03:40;99454.58;;;9.75;100.00
55277;BME280;41136;51.478;-2.610;2023-12-28T05:06:05;99472.89;;;9.74;100.00
55277;BME280;41136;51.478;-2.610;2023-12-28T05:08:31;99487.16;;;9.73;100.00
55277;BME280;41136;51.478;-2.610;2023-12-28T05:10:56;99483.48;;;8.82;100.00
55277;BME280;41136;51.478;-2.610;2023-12-28T05:13:21;99480.65;;;9.10;100.00
55277;BME280;41136;51.478;-2.610;2023-12-28T05:15:47;99494.47;;;9.47;100.00
55277;BME280;41136;51.478;-2.610;2023-12-28T05:18:13;99496.20;;;9.44;100.00
55277;BME280;41136;51.478;-2.610;2023-12-28T05:20:38;99492.60;;;9.04;100.00
55277;BME280;41136;51.478;-2.610;2023-12-28T05:23:04;99490.57;;;9.28;100.00
55277;BME280;41136;51.478;-2.610;2023-12-28T05:25:29;99493.52;;;10.36;100.00
55277;BME280;41136;51.478;-2.610;2023-12-28T05:27:55;99493.39;;;10.12;100.00
55277;BME280;41136;51.478;-2.610;2023-12-28T05:30:20;99495.20;;;9.75;100.00
55277;BME280;41136;51.478;-2.610;2023-12-28T05:32:46;99489.53;;;9.90;100.00
55277;BME280;41136;51.478;-2.610;2023-12-28T05:35:11;99492.56;;;10.04;100.00
55277;BME280;41136;51.478;-2.610;2023-12-28T05:37:37;99493.31;;;9.53;100.00
55277;BME280;41136;51.478;-2.610;2023-12-28T05:40:03;99494.45;;;9.36;100.00
55277;BME280;41136;51.478;-2.610;2023-12-28T05:42:28;99495.04;;;9.76;100.00
55277;BME280;41136;51.478;-2.610;2023-12-28T05:44:58;99501.33;;;10.02;100.00
55277;BME280;41136;51.478;-2.610;2023-12-28T05:47:19;99509.97;;;9.95;100.00
55277;BME280;41136;51.478;-2.610;2023-12-28T05:49:45;99517.47;;;9.78;100.00
55277;BME280;41136;51.478;-2.610;2023-12-28T05:52:10;99513.64;;;10.83;100.00
55277;BME280;41136;51.478;-2.610;2023-12-28T05:54:35;99510.57;;;10.35;100.00
55277;BME280;41136;51.478;-2.610;2023-12-28T05:57:01;99508.68;;;10.07;100.00
55277;BME280;41136;51.478;-2.610;2023-12-28T05:59:27;99514.55;;;10.22;100.00
55277;BME280;41136;51.478;-2.610;2023-12-28T06:01:53;99520.57;;;10.24;100.00
55277;BME280;41136;51.478;-2.610;2023-12-28T06:04:18;99521.09;;;10.57;100.00
55277;BME280;41136;51.478;-2.610;2023-12-28T06:06:44;99520.40;;;9.99;100.00
55277;BME280;41136;51.478;-2.610;2023-12-28T06:09:08;99518.37;;;9.88;100.00
55277;BME280;41136;51.478;-2.610;2023-12-28T06:11:34;99521.93;;;9.23;100.00
55277;BME280;41136;51.478;-2.610;2023-12-28T06:13:59;99521.86;;;8.62;100.00
55277;BME280;41136;51.478;-2.610;2023-12-28T06:16:24;99527.89;;;8.86;100.00
55277;BME280;41136;51.478;-2.610;2023-12-28T06:18:49;99517.29;;;9.04;100.00
55277;BME280;41136;51.478;-2.610;2023-12-28T06:21:15;99529.36;;;9.29;100.00
55277;BME280;41136;51.478;-2.610;2023-12-28T06:23:41;99531.21;;;9.33;100.00
55277;BME280;41136;51.478;-2.610;2023-12-28T06:26:06;99533.81;;;9.33;100.00
55277;BME280;41136;51.478;-2.610;2023-12-28T06:28:31;99534.47;;;9.12;100.00
55277;BME280;41136;51.478;-2.610;2023-12-28T06:30:57;99532.53;;;9.12;100.00
55277;BME280;41136;51.478;-2.610;2023-12-28T06:33:22;99534.90;;;9.68;100.00
55277;BME280;41136;51.478;-2.610;2023-12-28T06:35:48;99526.86;;;9.32;100.00
55277;BME280;41136;51.478;-2.610;2023-12-28T06:38:14;99527.70;;;9.76;100.00
55277;BME280;41136;51.478;-2.610;2023-12-28T06:40:40;99528.15;;;9.89;100.00
55277;BME280;41136;51.478;-2.610;2023-12-28T06:43:06;99528.06;;;9.48;100.00
55277;BME280;41136;51.478;-2.610;2023-12-28T06:45:31;99531.37;;;9.89;100.00
55277;BME280;41136;51.478;-2.610;2023-12-28T06:47:57;99535.44;;;9.55;100.00
55277;BME280;41136;51.478;-2.610;2023-12-28T06:50:23;99530.29;;;9.71;100.00
55277;BME280;41136;51.478;-2.610;2023-12-28T06:52:49;99538.31;;;9.84;100.00
55277;BME280;41136;51.478;-2.610;2023-12-28T06:55:14;99534.94;;;9.95;100.00
55277;BME280;41136;51.478;-2.610;2023-12-28T06:57:39;99536.64;;;9.72;100.00
55277;BME280;41136;51.478;-2.610;2023-12-28T07:00:06;99539.20;;;9.59;100.00
55277;BME280;41136;51.478;-2.610;2023-12-28T07:02:30;99541.82;;;10.26;100.00
55277;BME280;41136;51.478;-2.610;2023-12-28T07:04:55;99534.69;;;9.96;100.00
55277;BME280;41136;51.478;-2.610;2023-12-28T07:07:21;99537.22;;;10.05;100.00
55277;BME280;41136;51.478;-2.610;2023-12-28T07:09:46;99534.96;;;9.85;100.00
55277;BME280;41136;51.478;-2.610;2023-12-28T07:12:12;99548.28;;;10.04;100.00
55277;BME280;41136;51.478;-2.610;2023-12-28T07:14:37;99552.48;;;9.81;100.00
55277;BME280;41136;51.478;-2.610;2023-12-28T07:17:03;99547.61;;;10.38;100.00
55277;BME280;41136;51.478;-2.610;2023-12-28T07:19:29;99543.25;;;10.19;100.00
55277;BME280;41136;51.478;-2.610;2023-12-28T07:21:54;99554.50;;;9.40;100.00
55277;BME280;41136;51.478;-2.610;2023-12-28T07:24:20;99550.28;;;9.88;100.00
55277;BME280;41136;51.478;-2.610;2023-12-28T07:26:46;99555.45;;;9.99;100.00
55277;BME280;41136;51.478;-2.610;2023-12-28T07:29:11;99569.17;;;9.55;100.00
55277;BME280;41136;51.478;-2.610;2023-12-28T07:31:36;99569.87;;;9.58;100.00
55277;BME280;41136;51.478;-2.610;2023-12-28T07:34:02;99570.39;;;8.95;100.00
55277;BME280;41136;51.478;-2.610;2023-12-28T07:36:27;99561.95;;;9.24;100.00
55277;BME280;41136;51.478;-2.610;2023-12-28T07:38:52;99570.19;;;9.81;100.00
55277;BME280;41136;51.478;-2.610;2023-12-28T07:41:18;99571.44;;;9.12;100.00
55277;BME280;41136;51.478;-2.610;2023-12-28T07:43:43;99565.96;;;10.35;100.00
55277;BME280;41136;51.478;-2.610;2023-12-28T07:46:08;99564.34;;;10.08;100.00
55277;BME280;41136;51.478;-2.610;2023-12-28T07:48:33;99573.64;;;10.42;100.00
55277;BME280;41136;51.478;-2.610;2023-12-28T07:51:04;99567.61;;;10.63;100.00
55277;BME280;41136;51.478;-2.610;2023-12-28T07:53:25;99575.57;;;9.83;100.00
55277;BME280;41136;51.478;-2.610;2023-12-28T07:55:50;99578.38;;;10.28;100.00
55277;BME280;41136;51.478;-2.610;2023-12-28T07:58:16;99582.94;;;10.32;100.00
55277;BME280;41136;51.478;-2.610;2023-12-28T08:00:41;99577.57;;;10.27;100.00
55277;BME280;41136;51.478;-2.610;2023-12-28T08:03:07;99572.51;;;10.09;100.00
55277;BME280;41136;51.478;-2.610;2023-12-28T08:05:32;99576.73;;;10.58;100.00
55277;BME280;41136;51.478;-2.610;2023-12-28T08:07:58;99578.35;;;10.17;100.00
55277;BME280;41136;51.478;-2.610;2023-12-28T08:10:23;99578.21;;;10.68;100.00
55277;BME280;41136;51.478;-2.610;2023-12-28T08:12:48;99579.28;;;9.87;100.00
55277;BME280;41136;51.478;-2.610;2023-12-28T08:15:14;99581.40;;;10.14;100.00
55277;BME280;41136;51.478;-2.610;2023-12-28T08:17:39;99591.44;;;10.22;100.00
55277;BME280;41136;51.478;-2.610;2023-12-28T08:20:06;99586.89;;;10.45;100.00
55277;BME280;41136;51.478;-2.610;2023-12-28T08:22:31;99587.80;;;10.19;100.00
55277;BME280;41136;51.478;-2.610;2023-12-28T08:24:56;99583.33;;;10.31;100.00
55277;BME280;41136;51.478;-2.610;2023-12-28T08:27:22;99593.90;;;10.06;100.00
55277;BME280;41136;51.478;-2.610;2023-12-28T08:29:47;99598.41;;;10.62;100.00
55277;BME280;41136;51.478;-2.610;2023-12-28T08:32:12;99599.46;;;9.89;100.00
55277;BME280;41136;51.478;-2.610;2023-12-28T08:34:37;99589.15;;;9.20;100.00
55277;BME280;41136;51.478;-2.610;2023-12-28T08:37:03;99597.05;;;9.66;100.00
55277;BME280;41136;51.478;-2.610;2023-12-28T08:39:28;99601.14;;;9.73;100.00
55277;BME280;41136;51.478;-2.610;2023-12-28T08:41:55;99598.82;;;10.21;100.00
55277;BME280;41136;51.478;-2.610;2023-12-28T08:44:19;99598.89;;;9.80;100.00
55277;BME280;41136;51.478;-2.610;2023-12-28T08:46:44;99603.86;;;9.81;100.00
55277;BME280;41136;51.478;-2.610;2023-12-28T08:49:10;99604.47;;;9.47;100.00
55277;BME280;41136;51.478;-2.610;2023-12-28T08:51:36;99606.11;;;9.62;100.00
55277;BME280;41136;51.478;-2.610;2023-12-28T08:54:01;99599.19;;;10.10;100.00
55277;BME280;41136;51.478;-2.610;2023-12-28T08:56:27;99593.66;;;10.05;100.00
55277;BME280;41136;51.478;-2.610;2023-12-28T08:58:52;99594.86;;;9.51;100.00
55277;BME280;41136;51.478;-2.610;2023-12-28T09:01:18;99603.14;;;10.01;100.00
55277;BME280;41136;51.478;-2.610;2023-12-28T09:03:43;99587.61;;;10.24;100.00
55277;BME280;41136;51.478;-2.610;2023-12-28T09:06:08;99594.03;;;9.99;100.00
55277;BME280;41136;51.478;-2.610;2023-12-28T09:08:33;99595.66;;;9.90;100.00
55277;BME280;41136;51.478;-2.610;2023-12-28T09:10:59;99595.83;;;10.34;100.00
55277;BME280;41136;51.478;-2.610;2023-12-28T09:13:24;99617.10;;;10.01;100.00
55277;BME280;41136;51.478;-2.610;2023-12-28T09:15:49;99606.08;;;10.45;100.00
55277;BME280;41136;51.478;-2.610;2023-12-28T09:18:15;99603.57;;;10.43;100.00
55277;BME280;41136;51.478;-2.610;2023-12-28T09:20:41;99611.17;;;9.88;100.00
55277;BME280;41136;51.478;-2.610;2023-12-28T09:23:06;99610.65;;;10.34;100.00
55277;BME280;41136;51.478;-2.610;2023-12-28T09:25:32;99626.58;;;9.86;100.00
55277;BME280;41136;51.478;-2.610;2023-12-28T09:27:57;99625.26;;;10.23;100.00
55277;BME280;41136;51.478;-2.610;2023-12-28T09:30:23;99629.45;;;9.99;100.00
55277;BME280;41136;51.478;-2.610;2023-12-28T09:32:48;99624.03;;;9.40;100.00
55277;BME280;41136;51.478;-2.610;2023-12-28T09:35:14;99612.88;;;9.44;100.00
55277;BME280;41136;51.478;-2.610;2023-12-28T09:37:39;99617.04;;;9.88;100.00
55277;BME280;41136;51.478;-2.610;2023-12-28T09:40:05;99614.49;;;10.34;100.00
55277;BME280;41136;51.478;-2.610;2023-12-28T09:42:35;99614.41;;;8.98;100.00
55277;BME280;41136;51.478;-2.610;2023-12-28T09:44:56;99613.95;;;9.18;100.00
55277;BME280;41136;51.478;-2.610;2023-12-28T09:47:22;99613.76;;;9.04;100.00
55277;BME280;41136;51.478;-2.610;2023-12-28T09:49:47;99600.54;;;9.86;100.00
55277;BME280;41136;51.478;-2.610;2023-12-28T09:52:12;99609.48;;;8.68;100.00
55277;BME280;41136;51.478;-2.610;2023-12-28T09:54:38;99597.74;;;9.47;100.00
55277;BME280;41136;51.478;-2.610;2023-12-28T09:57:04;99596.11;;;9.62;100.00
55277;BME280;41136;51.478;-2.610;2023-12-28T09:59:29;99597.04;;;9.54;100.00
55277;BME280;41136;51.478;-2.610;2023-12-28T10:01:55;99588.39;;;9.23;100.00
55277;BME280;41136;51.478;-2.610;2023-12-28T10:04:20;99587.72;;;9.70;100.00
55277;BME280;41136;51.478;-2.610;2023-12-28T10:06:45;99587.76;;;9.47;100.00
55277;BME280;41136;51.478;-2.610;2023-12-28T10:09:10;99586.63;;;9.22;100.00
55277;BME280;41136;51.478;-2.610;2023-12-28T10:11:36;99589.88;;;9.73;100.00
55277;BME280;41136;51.478;-2.610;2023-12-28T10:14:01;99590.29;;;9.44;100.00
55277;BME280;41136;51.478;-2.610;2023-12-28T10:16:26;99589.43;;;10.31;100.00
55277;BME280;41136;51.478;-2.610;2023-12-28T10:18:52;99596.81;;;9.60;100.00
55277;BME280;41136;51.478;-2.610;2023-12-28T10:21:17;99586.87;;;9.72;100.00
55277;BME280;41136;51.478;-2.610;2023-12-28T10:23:43;99587.84;;;9.63;100.00
55277;BME280;41136;51.478;-2.610;2023-12-28T10:26:09;99587.23;;;9.73;100.00
55277;BME280;41136;51.478;-2.610;2023-12-28T10:28:35;99583.73;;;10.04;100.00
55277;BME280;41136;51.478;-2.610;2023-12-28T10:30:59;99575.81;;;10.62;100.00
55277;BME280;41136;51.478;-2.610;2023-12-28T10:33:25;99574.94;;;9.90;100.00
55277;BME280;41136;51.478;-2.610;2023-12-28T10:35:50;99570.81;;;9.58;100.00
55277;BME280;41136;51.478;-2.610;2023-12-28T10:38:16;99578.83;;;9.85;100.00
55277;BME280;41136;51.478;-2.610;2023-12-28T10:40:41;99558.78;;;10.18;100.00
55277;BME280;41136;51.478;-2.610;2023-12-28T10:43:07;99560.48;;;10.18;100.00
55277;BME280;41136;51.478;-2.610;2023-12-28T10:45:33;99557.51;;;9.52;100.00
55277;BME280;41136;51.478;-2.610;2023-12-28T10:48:04;99542.61;;;10.40;100.00
55277;BME280;41136;51.478;-2.610;2023-12-28T10:50:23;99552.33;;;9.89;100.00
55277;BME280;41136;51.478;-2.610;2023-12-28T10:52:52;99549.70;;;9.47;100.00
55277;BME280;41136;51.478;-2.610;2023-12-28T10:55:24;99534.19;;;9.67;100.00
55277;BME280;41136;51.478;-2.610;2023-12-28T10:57:44;99545.55;;;9.84;100.00
55277;BME280;41136;51.478;-2.610;2023-12-28T11:00:09;99552.47;;;9.39;100.00
55277;BME280;41136;51.478;-2.610;2023-12-28T11:02:35;99546.46;;;9.90;100.00
55277;BME280;41136;51.478;-2.610;2023-12-28T11:04:55;99555.37;;;9.65;100.00
55277;BME280;41136;51.478;-2.610;2023-12-28T11:07:21;99549.52;;;9.94;100.00
55277;BME280;41136;51.478;-2.610;2023-12-28T11:09:45;99539.85;;;9.78;100.00
55277;BME280;41136;51.478;-2.610;2023-12-28T11:12:11;99540.84;;;9.81;100.00
55277;BME280;41136;51.478;-2.610;2023-12-28T11:14:36;99519.01;;;10.11;100.00
55277;BME280;41136;51.478;-2.610;2023-12-28T11:17:01;99532.55;;;9.07;100.00
55277;BME280;41136;51.478;-2.610;2023-12-28T11:19:27;99534.86;;;9.32;100.00
55277;BME280;41136;51.478;-2.610;2023-12-28T11:21:52;99532.83;;;9.38;100.00
55277;BME280;41136;51.478;-2.610;2023-12-28T11:24:17;99539.42;;;9.56;100.00
55277;BME280;41136;51.478;-2.610;2023-12-28T11:26:42;99536.56;;;9.90;100.00
55277;BME280;41136;51.478;-2.610;2023-12-28T11:29:08;99533.00;;;10.11;100.00
55277;BME280;41136;51.478;-2.610;2023-12-28T11:31:35;99531.73;;;10.09;100.00
55277;BME280;41136;51.478;-2.610;2023-12-28T11:33:59;99529.50;;;9.65;100.00
55277;BME280;41136;51.478;-2.610;2023-12-28T11:36:33;99527.15;;;9.60;100.00
55277;BME280;41136;51.478;-2.610;2023-12-28T11:38:53;99530.27;;;9.43;100.00
55277;BME280;41136;51.478;-2.610;2023-12-28T11:41:16;99531.08;;;10.22;100.00
55277;BME280;41136;51.478;-2.610;2023-12-28T11:43:41;99529.09;;;9.89;100.00
55277;BME280;41136;51.478;-2.610;2023-12-28T11:46:08;99524.37;;;9.79;100.00
55277;BME280;41136;51.478;-2.610;2023-12-28T11:48:31;99536.31;;;9.26;100.00
55277;BME280;41136;51.478;-2.610;2023-12-28T11:50:58;99522.63;;;9.56;100.00
55277;BME280;41136;51.478;-2.610;2023-12-28T11:53:23;99519.47;;;9.60;100.00
55277;BME280;41136;51.478;-2.610;2023-12-28T11:55:48;99524.85;;;9.20;100.00
55277;BME280;41136;51.478;-2.610;2023-12-28T11:58:13;99520.11;;;9.16;100.00
55277;BME280;41136;51.478;-2.610;2023-12-28T12:00:40;99515.18;;;9.80;100.00
55277;BME280;41136;51.478;-2.610;2023-12-28T12:03:04;99507.05;;;9.80;100.00
55277;BME280;41136;51.478;-2.610;2023-12-28T12:05:29;99513.53;;;9.90;100.00
55277;BME280;41136;51.478;-2.610;2023-12-28T12:07:54;99514.99;;;9.41;100.00
55277;BME280;41136;51.478;-2.610;2023-12-28T12:10:20;99509.92;;;9.85;100.00
55277;BME280;41136;51.478;-2.610;2023-12-28T12:12:45;99509.63;;;9.70;100.00
55277;BME280;41136;51.478;-2.610;2023-12-28T12:15:10;99504.18;;;9.80;100.00
55277;BME280;41136;51.478;-2.610;2023-12-28T12:17:36;99510.25;;;9.46;100.00
55277;BME280;41136;51.478;-2.610;2023-12-28T12:20:01;99506.60;;;9.75;100.00
55277;BME280;41136;51.478;-2.610;2023-12-28T12:22:26;99494.77;;;9.81;100.00
55277;BME280;41136;51.478;-2.610;2023-12-28T12:24:53;99495.18;;;10.13;100.00
55277;BME280;41136;51.478;-2.610;2023-12-28T12:27:17;99493.48;;;9.58;100.00
55277;BME280;41136;51.478;-2.610;2023-12-28T12:29:42;99483.75;;;9.98;100.00
55277;BME280;41136;51.478;-2.610;2023-12-28T12:32:08;99487.48;;;9.90;100.00
55277;BME280;41136;51.478;-2.610;2023-12-28T12:34:33;99488.44;;;9.98;100.00
55277;BME280;41136;51.478;-2.610;2023-12-28T12:36:59;99476.84;;;9.58;100.00
55277;BME280;41136;51.478;-2.610;2023-12-28T12:39:24;99471.28;;;9.73;100.00
55277;BME280;41136;51.478;-2.610;2023-12-28T12:41:49;99476.08;;;9.41;100.00
55277;BME280;41136;51.478;-2.610;2023-12-28T12:44:14;99467.09;;;10.04;100.00
55277;BME280;41136;51.478;-2.610;2023-12-28T12:46:40;99468.82;;;9.64;100.00
55277;BME280;41136;51.478;-2.610;2023-12-28T12:49:05;99463.76;;;10.08;100.00
55277;BME280;41136;51.478;-2.610;2023-12-28T12:51:30;99460.81;;;9.39;100.00
55277;BME280;41136;51.478;-2.610;2023-12-28T12:53:56;99467.65;;;10.16;100.00
55277;BME280;41136;51.478;-2.610;2023-12-28T12:56:21;99456.08;;;10.32;100.00
55277;BME280;41136;51.478;-2.610;2023-12-28T12:58:46;99453.28;;;10.02;100.00
55277;BME280;41136;51.478;-2.610;2023-12-28T13:01:12;99447.75;;;9.71;100.00
55277;BME280;41136;51.478;-2.610;2023-12-28T13:03:37;99454.28;;;10.12;100.00